createdAt,value
2023-12-30T00:00:48.424Z,99898.63
2023-12-30T00:03:16.600Z,99894.13
2023-12-30T00:05:45.194Z,99888.81
2023-12-30T00:08:14.734Z,99883.34
2023-12-30T00:10:42.847Z,99879.84
2023-12-30T00:13:10.985Z,99886.97
2023-12-30T00:15:39.279Z,99878.84
2023-12-30T00:18:07.575Z,99885.00
2023-12-30T00:20:36.125Z,99876.00
2023-12-30T00:23:04.589Z,99869.84
2023-12-30T00:25:35.114Z,99863.72
2023-12-30T00:28:03.686Z,99873.69
2023-12-30T00:30:31.847Z,99869.50
2023-12-30T00:33:00.389Z,99857.38
2023-12-30T00:35:28.746Z,99865.34
2023-12-30T00:37:56.986Z,99874.63
2023-12-30T00:40:27.151Z,99884.59
2023-12-30T00:42:57.178Z,99880.41
2023-12-30T00:45:25.397Z,99890.41
2023-12-30T00:47:53.663Z,99886.22
2023-12-30T00:50:21.867Z,99870.41
2023-12-30T00:52:49.994Z,99870.56
2023-12-30T00:55:18.392Z,99872.25
2023-12-30T00:57:46.584Z,99878.72
2023-12-30T01:00:17.532Z,99882.38
2023-12-30T01:02:45.625Z,99893.84
2023-12-30T01:05:13.783Z,99908.13
2023-12-30T01:07:41.848Z,99922.13
2023-12-30T01:10:10.575Z,99918.78
2023-12-30T01:12:38.709Z,99928.44
2023-12-30T01:15:08.335Z,99927.59
2023-12-30T01:17:38.111Z,99929.41
2023-12-30T01:20:09.357Z,99921.44
2023-12-30T01:22:38.245Z,99922.13
2023-12-30T01:25:07.994Z,99923.78
2023-12-30T01:27:36.167Z,99924.09
2023-12-30T01:30:04.594Z,99923.44
2023-12-30T01:32:32.769Z,99926.09
2023-12-30T01:35:02.467Z,99927.38
2023-12-30T01:37:30.640Z,99937.34
2023-12-30T01:39:58.947Z,99948.00
2023-12-30T01:42:27.055Z,99958.66
2023-12-30T01:44:55.228Z,99969.56
2023-12-30T01:47:23.693Z,99967.22
2023-12-30T01:49:52.110Z,99963.22
2023-12-30T01:52:23.086Z,99962.38
2023-12-30T01:54:51.517Z,99952.88
2023-12-30T01:57:20.417Z,99949.69
2023-12-30T01:59:49.984Z,99959.66
2023-12-30T02:02:18.164Z,99967.78
2023-12-30T02:04:47.299Z,99974.09
2023-12-30T02:07:15.489Z,99971.44
2023-12-30T02:09:45.110Z,99973.41
2023-12-30T02:12:13.243Z,99989.34
2023-12-30T02:14:41.440Z,99981.38
2023-12-30T02:17:09.644Z,99987.41
2023-12-30T02:19:37.965Z,100000.00
2023-12-30T02:22:06.214Z,99999.72
2023-12-30T02:24:35.653Z,99999.72
2023-12-30T02:27:03.751Z,100002.50
2023-12-30T02:29:31.904Z,100005.31
2023-12-30T02:32:00.002Z,100007.69
2023-12-30T02:34:28.849Z,100005.31
2023-12-30T02:36:57.172Z,100005.63
2023-12-30T02:39:25.472Z,100008.44
2023-12-30T02:41:54.895Z,100015.59
2023-12-30T02:44:23.005Z,100016.56
2023-12-30T02:46:51.096Z,100027.50
2023-12-30T02:49:19.254Z,100020.38
2023-12-30T02:51:47.623Z,100021.66
2023-12-30T02:54:15.756Z,100017.16
2023-12-30T02:56:43.845Z,100031.44
2023-12-30T02:59:13.399Z,100030.47
2023-12-30T03:01:41.630Z,100035.91
2023-12-30T03:04:09.930Z,100035.38
2023-12-30T03:06:38.212Z,100047.16
2023-12-30T03:09:06.557Z,100046.03
2023-12-30T03:11:34.724Z,100049.69
2023-12-30T03:14:03.176Z,100058.63
2023-12-30T03:16:33.566Z,100055.31
2023-12-30T03:19:01.710Z,100053.63
2023-12-30T03:21:29.909Z,100057.25
2023-12-30T03:23:58.046Z,100057.25
2023-12-30T03:26:26.136Z,100069.03
2023-12-30T03:28:54.217Z,100058.53
2023-12-30T03:31:24.095Z,100063.31
2023-12-30T03:33:53.869Z,100066.81
2023-12-30T03:36:22.330Z,100066.13
2023-12-30T03:38:51.734Z,100062.63
2023-12-30T03:41:20.158Z,100067.13
2023-12-30T03:43:49.098Z,100073.56
2023-12-30T03:46:17.346Z,100086.03
2023-12-30T03:48:45.493Z,100084.34
2023-12-30T03:51:15.023Z,100076.38
2023-12-30T03:53:43.154Z,100084.63
2023-12-30T03:56:12.898Z,100101.56
2023-12-30T03:58:41.059Z,100102.56
2023-12-30T04:01:09.305Z,100100.88
2023-12-30T04:03:37.538Z,100106.19
2023-12-30T04:06:05.839Z,100096.84
2023-12-30T04:08:35.395Z,100107.47
2023-12-30T04:11:03.590Z,100109.44
2023-12-30T04:13:31.677Z,100095.19
2023-12-30T04:15:59.804Z,100107.47
2023-12-30T04:18:27.954Z,100098.81
2023-12-30T04:20:56.140Z,100113.09
2023-12-30T04:23:25.450Z,100109.75
2023-12-30T04:25:55.016Z,100109.03
2023-12-30T04:28:23.155Z,100108.34
2023-12-30T04:30:51.457Z,100114.50
2023-12-30T04:33:19.758Z,100109.19
2023-12-30T04:35:48.088Z,100108.34
2023-12-30T04:38:19.138Z,100110.31
2023-12-30T04:40:47.464Z,100108.66
2023-12-30T04:43:17.014Z,100115.91
2023-12-30T04:45:45.283Z,100109.91
2023-12-30T04:48:13.388Z,100114.56
2023-12-30T04:50:41.794Z,100119.88
2023-12-30T04:53:09.914Z,100122.78
2023-12-30T04:55:38.176Z,100125.72
2023-12-30T04:58:06.385Z,100132.84
2023-12-30T05:00:36.003Z,100128.38
2023-12-30T05:03:04.695Z,100134.69
2023-12-30T05:05:33.160Z,100144.47
2023-12-30T05:08:03.389Z,100154.09
2023-12-30T05:10:32.268Z,100157.88
2023-12-30T05:13:00.806Z,100155.09
2023-12-30T05:15:29.133Z,100154.53
2023-12-30T05:17:58.670Z,100159.69
2023-12-30T05:20:26.780Z,100165.16
2023-12-30T05:22:54.878Z,100155.38
2023-12-30T05:25:23.285Z,100161.66
2023-12-30T05:27:51.470Z,100160.16
2023-12-30T05:30:19.629Z,100164.44
2023-12-30T05:32:47.822Z,100160.16
2023-12-30T05:35:17.529Z,100162.94
2023-12-30T05:37:45.697Z,100178.88
2023-12-30T05:40:14.401Z,100171.75
2023-12-30T05:42:42.521Z,100183.22
2023-12-30T05:45:11.851Z,100182.22
2023-12-30T05:47:39.966Z,100181.38
2023-12-30T05:50:09.693Z,100183.03
2023-12-30T05:52:39.368Z,100183.22
2023-12-30T05:55:08.996Z,100168.78
2023-12-30T05:57:37.318Z,100200.66
2023-12-30T06:00:08.403Z,100186.41
2023-12-30T06:02:36.867Z,100205.69
2023-12-30T06:05:05.611Z,100190.03
2023-12-30T06:07:33.752Z,100197.88
2023-12-30T06:10:03.328Z,100202.22
2023-12-30T06:12:31.480Z,100211.00
2023-12-30T06:15:00.232Z,100211.84
2023-12-30T06:17:28.472Z,100213.25
2023-12-30T06:19:56.654Z,100219.69
2023-12-30T06:22:24.821Z,100218.84
2023-12-30T06:24:52.994Z,100210.88
2023-12-30T06:27:22.570Z,100219.69
2023-12-30T06:29:50.692Z,100232.81
2023-12-30T06:32:18.837Z,100238.13
2023-12-30T06:34:47.078Z,100229.47
2023-12-30T06:37:15.539Z,100244.56
2023-12-30T06:39:44.636Z,100245.72
2023-12-30T06:42:12.783Z,100237.56
2023-12-30T06:44:42.256Z,100244.03
2023-12-30T06:47:11.866Z,100267.22
2023-12-30T06:49:41.303Z,100256.59
2023-12-30T06:52:09.469Z,100266.38
2023-12-30T06:54:37.773Z,100266.50
2023-12-30T06:57:06.380Z,100263.84
2023-12-30T06:59:36.085Z,100261.34
2023-12-30T07:02:05.856Z,100274.75
2023-12-30T07:04:34.051Z,100268.31
2023-12-30T07:07:02.279Z,100268.31
2023-12-30T07:09:30.374Z,100271.97
2023-12-30T07:11:58.461Z,100276.56
2023-12-30T07:14:26.556Z,100288.03
2023-12-30T07:16:54.655Z,100285.38
2023-12-30T07:19:24.228Z,100285.38
2023-12-30T07:21:52.920Z,100295.03
2023-12-30T07:24:21.124Z,100293.34
2023-12-30T07:26:49.218Z,100292.50
2023-12-30T07:29:17.340Z,100289.03
2023-12-30T07:31:45.513Z,100303.84
2023-12-30T07:34:14.127Z,100297.97
2023-12-30T07:36:43.622Z,100293.50
2023-12-30T07:39:11.793Z,100297.69
2023-12-30T07:41:39.906Z,100296.00
2023-12-30T07:44:08.085Z,100297.97
2023-12-30T07:46:36.603Z,100300.75
2023-12-30T07:49:04.974Z,100299.09
2023-12-30T07:51:33.092Z,100298.09
2023-12-30T07:54:02.566Z,100298.66
2023-12-30T07:56:30.670Z,100311.09
2023-12-30T07:58:58.785Z,100313.63
2023-12-30T08:01:27.203Z,100316.84
2023-12-30T08:03:55.373Z,100320.09
2023-12-30T08:06:23.818Z,100321.63
2023-12-30T08:08:51.948Z,100337.72
2023-12-30T08:11:21.519Z,100339.09
2023-12-30T08:13:49.745Z,100330.16
2023-12-30T08:16:17.936Z,100326.53
2023-12-30T08:18:46.138Z,100326.66
2023-12-30T08:21:14.488Z,100334.34
2023-12-30T08:23:42.639Z,100330.03
2023-12-30T08:26:10.818Z,100342.19
2023-12-30T08:28:40.461Z,100349.44
2023-12-30T08:31:08.719Z,100344.84
2023-12-30T08:33:36.924Z,100341.47
2023-12-30T08:36:05.244Z,100349.44
2023-12-30T08:38:33.590Z,100341.34
2023-12-30T08:41:02.435Z,100353.50
2023-12-30T08:43:30.876Z,100349.03
2023-12-30T08:46:00.391Z,100361.47
2023-12-30T08:48:28.645Z,100355.63
2023-12-30T08:50:56.902Z,100351.66
2023-12-30T08:53:26.195Z,100360.66
2023-12-30T08:55:56.108Z,100356.97
2023-12-30T08:58:25.313Z,100356.84
2023-12-30T09:00:54.775Z,100359.34
2023-12-30T09:03:24.418Z,100377.97
2023-12-30T09:05:52.730Z,100372.41
2023-12-30T09:08:21.041Z,100387.22
2023-12-30T09:10:49.287Z,100384.28
2023-12-30T09:13:17.497Z,100388.47
2023-12-30T09:15:45.718Z,100394.31
2023-12-30T09:18:15.435Z,100401.06
2023-12-30T09:20:45.571Z,100398.25
2023-12-30T09:23:13.777Z,100405.94
2023-12-30T09:25:41.950Z,100411.94
2023-12-30T09:28:10.244Z,100413.34
2023-12-30T09:30:38.413Z,100413.34
2023-12-30T09:33:09.382Z,100428.75
2023-12-30T09:35:39.353Z,100414.88
2023-12-30T09:38:08.993Z,100443.72
2023-12-30T09:40:37.272Z,100435.75
2023-12-30T09:43:07.742Z,100430.44
2023-12-30T09:45:39.338Z,100436.44
2023-12-30T09:48:12.214Z,100438.97
2023-12-30T09:50:40.405Z,100445.13
2023-12-30T09:53:09.946Z,100443.16
2023-12-30T09:55:38.125Z,100452.53
2023-12-30T09:58:07.223Z,100463.84
2023-12-30T10:00:42.205Z,100454.91
2023-12-30T10:03:10.512Z,100458.25
2023-12-30T10:05:39.060Z,100459.94
2023-12-30T10:08:09.806Z,100452.78
2023-12-30T10:10:44.508Z,100448.44
2023-12-30T10:13:13.810Z,100450.97
2023-12-30T10:15:43.780Z,100455.47
2023-12-30T10:18:14.135Z,100466.09
2023-12-30T10:20:44.805Z,100464.69
2023-12-30T10:23:14.381Z,100467.34
2023-12-30T10:25:42.772Z,100461.03
2023-12-30T10:28:11.703Z,100468.75
2023-12-30T10:30:39.939Z,100468.06
2023-12-30T10:33:10.253Z,100472.25
2023-12-30T10:35:41.499Z,100458.81
2023-12-30T10:38:11.033Z,100465.09
2023-12-30T10:40:41.972Z,100445.63
2023-12-30T10:43:10.867Z,100464.13
2023-12-30T10:45:39.162Z,100452.34
2023-12-30T10:48:09.828Z,100461.19
2023-12-30T10:50:40.652Z,100469.00
2023-12-30T10:53:13.781Z,100470.56
2023-12-30T10:55:52.540Z,100470.28
2023-12-30T10:58:24.161Z,100469.44
2023-12-30T11:00:59.380Z,100461.28
2023-12-30T11:03:30.322Z,100462.84
2023-12-30T11:06:11.249Z,100453.84
2023-12-30T11:08:42.859Z,100465.22
2023-12-30T11:11:15.793Z,100464.75
2023-12-30T11:13:44.338Z,100457.63
2023-12-30T11:16:17.583Z,100451.47
2023-12-30T11:18:50.062Z,100445.88
2023-12-30T11:21:38.355Z,100452.56
2023-12-30T11:24:09.429Z,100443.59
2023-12-30T11:26:45.140Z,100444.16
2023-12-30T11:29:16.651Z,100448.34
2023-12-30T11:31:47.283Z,100446.38
2023-12-30T11:34:17.272Z,100448.03
2023-12-30T11:36:48.022Z,100448.03
2023-12-30T11:39:25.501Z,100448.75
2023-12-30T11:41:55.251Z,100442.28
2023-12-30T11:44:25.169Z,100437.66
2023-12-30T11:46:53.575Z,100448.03
2023-12-30T11:49:24.045Z,100437.94
2023-12-30T11:51:55.250Z,100431.47
2023-12-30T11:54:23.985Z,100440.97
2023-12-30T11:56:52.165Z,100434.66
2023-12-30T11:59:21.801Z,100438.84
2023-12-30T12:01:50.086Z,100437.03
2023-12-30T12:04:18.345Z,100430.88
2023-12-30T12:06:46.523Z,100429.59
2023-12-30T12:09:14.706Z,100441.09
2023-12-30T12:11:42.819Z,100441.75
2023-12-30T12:14:11.536Z,100438.81
2023-12-30T12:16:42.265Z,100436.00
2023-12-30T12:19:10.569Z,100420.69
2023-12-30T12:21:38.825Z,100442.00
2023-12-30T12:24:07.911Z,100433.03
2023-12-30T12:26:38.912Z,100439.22
2023-12-30T12:29:07.274Z,100443.69
2023-12-30T12:31:35.523Z,100447.22
2023-12-30T12:34:23.309Z,100441.88
2023-12-30T12:36:52.112Z,100446.06
2023-12-30T12:39:20.261Z,100445.63
2023-12-30T12:41:48.469Z,100438.00
2023-12-30T12:44:16.618Z,100435.75
2023-12-30T12:46:45.017Z,100437.13
2023-12-30T12:49:15.040Z,100438.78
2023-12-30T12:51:45.710Z,100430.97
2023-12-30T12:54:13.978Z,100438.78
2023-12-30T12:56:43.982Z,100430.91
2023-12-30T12:59:12.308Z,100433.13
2023-12-30T13:01:40.730Z,100437.31
2023-12-30T13:04:09.594Z,100427.50
2023-12-30T13:06:37.802Z,100435.72
2023-12-30T13:09:27.712Z,100442.72
2023-12-30T13:11:57.570Z,100438.38
2023-12-30T13:14:28.153Z,100437.25
2023-12-30T13:16:56.609Z,100436.41
2023-12-30T13:19:25.382Z,100429.53
2023-12-30T13:21:54.229Z,100445.69
2023-12-30T13:24:23.743Z,100439.66
2023-12-30T13:26:51.331Z,100445.00
2023-12-30T13:29:20.478Z,100449.94
2023-12-30T13:31:49.449Z,100440.94
2023-12-30T13:34:17.932Z,100439.25
2023-12-30T13:36:46.429Z,100436.06
2023-12-30T13:39:15.526Z,100447.19
2023-12-30T13:41:45.171Z,100440.47
2023-12-30T13:44:16.502Z,100437.13
2023-12-30T13:46:59.350Z,100442.75
2023-12-30T13:49:50.637Z,100435.75
2023-12-30T13:52:18.059Z,100437.72
2023-12-30T13:54:46.875Z,100437.16
2023-12-30T13:57:24.642Z,100447.00
2023-12-30T13:59:54.085Z,100448.97
2023-12-30T14:02:25.331Z,100443.81
2023-12-30T14:04:58.167Z,100455.56
2023-12-30T14:07:28.855Z,100449.41
2023-12-30T14:10:01.397Z,100453.06
2023-12-30T14:12:31.146Z,100455.19
2023-12-30T14:15:07.195Z,100450.84
2023-12-30T14:17:36.338Z,100457.16
2023-12-30T14:20:05.946Z,100451.16
2023-12-30T14:22:34.809Z,100433.78
2023-12-30T14:25:05.541Z,100437.28
2023-12-30T14:27:37.116Z,100441.75
2023-12-30T14:30:07.303Z,100440.38
2023-12-30T14:32:35.870Z,100439.69
2023-12-30T14:35:05.741Z,100445.16
2023-12-30T14:37:33.990Z,100439.16
2023-12-30T14:40:02.273Z,100447.13
2023-12-30T14:42:30.417Z,100440.97
2023-12-30T14:44:59.924Z,100441.13
2023-12-30T14:47:28.216Z,100438.47
2023-12-30T14:49:56.382Z,100440.28
2023-12-30T14:52:24.627Z,100436.78
2023-12-30T14:55:01.666Z,100436.91
2023-12-30T14:57:31.015Z,100440.59
2023-12-30T15:00:00.727Z,100437.94
2023-12-30T15:02:28.872Z,100437.22
2023-12-30T15:04:57.080Z,100445.19
2023-12-30T15:07:26.696Z,100452.50
2023-12-30T15:09:55.149Z,100442.00
2023-12-30T15:12:24.601Z,100459.78
2023-12-30T15:14:52.737Z,100449.97
2023-12-30T15:17:22.302Z,100457.28
2023-12-30T15:19:51.554Z,100450.97
2023-12-30T15:22:20.237Z,100456.44
2023-12-30T15:24:48.544Z,100455.47
2023-12-30T15:27:16.688Z,100455.47
2023-12-30T15:29:44.846Z,100458.13
2023-12-30T15:32:13.835Z,100451.97
2023-12-30T15:34:43.718Z,100448.47
2023-12-30T15:37:12.997Z,100447.47
2023-12-30T15:39:41.265Z,100444.94
2023-12-30T15:42:09.827Z,100443.13
2023-12-30T15:44:38.976Z,100459.25
2023-12-30T15:47:10.313Z,100453.91
2023-12-30T15:49:38.861Z,100454.06
2023-12-30T15:52:10.814Z,100457.59
2023-12-30T15:54:40.048Z,100454.06
2023-12-30T15:57:08.246Z,100455.91
2023-12-30T15:59:37.015Z,100456.88
2023-12-30T16:02:05.851Z,100446.22
2023-12-30T16:04:34.067Z,100449.72
2023-12-30T16:07:02.317Z,100458.69
2023-12-30T16:09:31.930Z,100455.91
2023-12-30T16:12:00.124Z,100453.38
2023-12-30T16:14:28.284Z,100459.41
2023-12-30T16:16:56.487Z,100461.09
2023-12-30T16:19:25.208Z,100465.41
2023-12-30T16:21:53.386Z,100460.09
2023-12-30T16:24:21.736Z,100461.78
2023-12-30T16:26:51.351Z,100461.78
2023-12-30T16:29:19.535Z,100466.81
2023-12-30T16:31:47.785Z,100471.16
2023-12-30T16:34:16.426Z,100464.28
2023-12-30T16:36:44.850Z,100469.59
2023-12-30T16:39:13.037Z,100465.81
2023-12-30T16:41:41.168Z,100466.81
2023-12-30T16:44:10.642Z,100472.13
2023-12-30T16:46:39.578Z,100464.13
2023-12-30T16:49:08.954Z,100465.97
2023-12-30T16:51:37.675Z,100460.63
2023-12-30T16:54:09.385Z,100466.94
2023-12-30T16:56:37.658Z,100465.97
2023-12-30T16:59:06.032Z,100465.81
2023-12-30T17:01:35.890Z,100465.81
2023-12-30T17:04:04.532Z,100465.81
2023-12-30T17:06:33.792Z,100464.81
2023-12-30T17:09:04.700Z,100462.16
2023-12-30T17:11:33.079Z,100460.34
2023-12-30T17:14:02.998Z,100463.72
2023-12-30T17:16:31.250Z,100463.84
2023-12-30T17:19:00.803Z,100464.81
2023-12-30T17:21:31.213Z,100465.81
2023-12-30T17:23:59.475Z,100468.50
2023-12-30T17:26:27.634Z,100471.16
2023-12-30T17:28:55.804Z,100470.16
2023-12-30T17:31:24.357Z,100470.16
2023-12-30T17:33:52.598Z,100471.00
2023-12-30T17:36:22.373Z,100469.16
2023-12-30T17:38:50.576Z,100464.81
2023-12-30T17:41:18.687Z,100469.34
2023-12-30T17:43:47.058Z,100466.50
2023-12-30T17:46:15.467Z,100461.19
2023-12-30T17:48:43.647Z,100463.00
2023-12-30T17:51:11.806Z,100461.19
2023-12-30T17:53:41.464Z,100457.53
2023-12-30T17:56:10.551Z,100460.19
2023-12-30T17:58:38.782Z,100460.19
2023-12-30T18:01:07.067Z,100459.22
2023-12-30T18:03:35.332Z,100465.38
2023-12-30T18:06:04.509Z,100465.38
2023-12-30T18:08:32.627Z,100469.88
2023-12-30T18:11:02.220Z,100464.25
2023-12-30T18:13:30.413Z,100460.88
2023-12-30T18:15:59.808Z,100460.88
2023-12-30T18:18:28.188Z,100460.88
2023-12-30T18:20:57.045Z,100464.56
2023-12-30T18:23:25.214Z,100461.19
2023-12-30T18:25:53.678Z,100456.84
2023-12-30T18:28:23.790Z,100454.16
2023-12-30T18:30:52.032Z,100455.19
2023-12-30T18:33:20.644Z,100452.50
2023-12-30T18:35:48.801Z,100449.84
2023-12-30T18:38:17.027Z,100454.47
2023-12-30T18:40:45.986Z,100457.41
2023-12-30T18:43:14.349Z,100451.13
2023-12-30T18:45:43.821Z,100452.94
2023-12-30T18:48:14.544Z,100451.41
2023-12-30T18:50:43.853Z,100451.41
2023-12-30T18:53:12.701Z,100450.69
2023-12-30T18:55:41.577Z,100444.41
2023-12-30T18:58:09.998Z,100443.72
2023-12-30T19:00:38.215Z,100446.38
2023-12-30T19:03:09.556Z,100443.00
2023-12-30T19:05:38.162Z,100443.00
2023-12-30T19:08:07.350Z,100440.50
2023-12-30T19:10:35.559Z,100446.94
2023-12-30T19:13:05.685Z,100443.59
2023-12-30T19:15:34.196Z,100435.31
2023-12-30T19:18:02.418Z,100447.34
2023-12-30T19:20:31.966Z,100439.38
2023-12-30T19:23:00.357Z,100436.84
2023-12-30T19:25:29.563Z,100440.34
2023-12-30T19:27:59.101Z,100429.41
2023-12-30T19:30:27.413Z,100434.72
2023-12-30T19:32:55.845Z,100426.06
2023-12-30T19:35:24.306Z,100424.25
2023-12-30T19:37:55.311Z,100424.38
2023-12-30T19:40:23.653Z,100429.03
2023-12-30T19:42:52.461Z,100430.72
2023-12-30T19:45:20.952Z,100423.69
2023-12-30T19:47:49.220Z,100424.53
2023-12-30T19:50:17.722Z,100414.88
2023-12-30T19:52:45.902Z,100415.00
2023-12-30T19:55:15.970Z,100415.00
2023-12-30T19:57:44.193Z,100411.66
2023-12-30T20:00:14.569Z,100414.31
2023-12-30T20:02:43.518Z,100412.63
2023-12-30T20:05:14.276Z,100413.63
2023-12-30T20:07:43.280Z,100411.94
2023-12-30T20:10:12.510Z,100411.09
2023-12-30T20:12:42.133Z,100409.59
2023-12-30T20:15:10.610Z,100410.56
2023-12-30T20:17:38.982Z,100414.19
2023-12-30T20:20:09.611Z,100417.88
2023-12-30T20:22:37.733Z,100406.50
2023-12-30T20:25:07.184Z,100415.50
2023-12-30T20:27:35.361Z,100411.28
2023-12-30T20:30:06.252Z,100407.09
2023-12-30T20:32:34.737Z,100397.41
2023-12-30T20:35:02.974Z,100397.03
2023-12-30T20:37:31.164Z,100402.34
2023-12-30T20:39:59.947Z,100392.13
2023-12-30T20:42:30.154Z,100389.63
2023-12-30T20:44:58.465Z,100397.63
2023-12-30T20:47:27.951Z,100393.56
2023-12-30T20:49:56.433Z,100387.69
2023-12-30T20:52:24.713Z,100387.69
2023-12-30T20:54:53.067Z,100394.16
2023-12-30T20:57:21.233Z,100396.09
2023-12-30T20:59:49.317Z,100398.91
2023-12-30T21:02:17.852Z,100389.38
2023-12-30T21:04:47.449Z,100389.38
2023-12-30T21:07:15.661Z,100386.31
2023-12-30T21:09:43.768Z,100381.00
2023-12-30T21:12:11.879Z,100382.13
2023-12-30T21:14:40.091Z,100376.28
2023-12-30T21:17:08.241Z,100377.06
2023-12-30T21:19:36.530Z,100368.41
2023-12-30T21:22:07.238Z,100382.84
2023-12-30T21:24:35.537Z,100371.50
2023-12-30T21:27:03.681Z,100375.97
2023-12-30T21:29:31.805Z,100369.13
2023-12-30T21:32:00.048Z,100369.41
2023-12-30T21:34:28.226Z,100361.72
2023-12-30T21:36:56.330Z,100363.69
2023-12-30T21:39:26.184Z,100362.00
2023-12-30T21:41:54.845Z,100360.31
2023-12-30T21:44:22.970Z,100355.47
2023-12-30T21:46:51.171Z,100356.56
2023-12-30T21:49:19.750Z,100353.91
2023-12-30T21:51:48.074Z,100352.38
2023-12-30T21:54:16.549Z,100348.88
2023-12-30T21:56:46.094Z,100343.84
2023-12-30T21:59:14.357Z,100340.22
2023-12-30T22:01:42.658Z,100338.53
2023-12-30T22:04:10.861Z,100330.56
2023-12-30T22:06:39.250Z,100328.72
2023-12-30T22:09:07.358Z,100327.06
2023-12-30T22:11:35.628Z,100325.22
2023-12-30T22:14:05.249Z,100328.72
2023-12-30T22:16:33.379Z,100324.38
2023-12-30T22:19:01.619Z,100319.91
2023-12-30T22:21:31.761Z,100321.59
2023-12-30T22:23:59.901Z,100322.56
2023-12-30T22:26:28.095Z,100319.22
2023-12-30T22:28:56.310Z,100315.72
2023-12-30T22:31:25.914Z,100310.41
2023-12-30T22:33:54.149Z,100305.38
2023-12-30T22:36:29.259Z,100309.16
2023-12-30T22:38:57.393Z,100312.09
2023-12-30T22:41:25.506Z,100312.25
2023-12-30T22:43:53.723Z,100303.44
2023-12-30T22:46:22.069Z,100299.09
2023-12-30T22:48:51.640Z,100290.44
2023-12-30T22:51:19.879Z,100288.75
2023-12-30T22:53:48.059Z,100290.00
2023-12-30T22:56:16.235Z,100284.00
2023-12-30T22:58:44.427Z,100273.66
2023-12-30T23:01:13.215Z,100280.09
2023-12-30T23:03:41.577Z,100278.56
2023-12-30T23:06:11.432Z,100283.03
2023-12-30T23:08:39.549Z,100276.16
2023-12-30T23:11:08.338Z,100276.16
2023-12-30T23:13:36.469Z,100274.63
2023-12-30T23:16:05.416Z,100263.28
2023-12-30T23:18:33.658Z,100262.72
2023-12-30T23:21:01.878Z,100258.41
2023-12-30T23:23:31.336Z,100260.22
2023-12-30T23:25:59.483Z,100254.91
2023-12-30T23:28:27.635Z,100248.75
2023-12-30T23:30:55.939Z,100247.06
2023-12-30T23:33:24.116Z,100241.75
2023-12-30T23:35:52.241Z,100236.44
2023-12-30T23:38:20.356Z,100233.13
2023-12-30T23:40:49.868Z,100231.31
2023-12-30T23:43:18.124Z,100236.75
2023-12-30T23:45:46.218Z,100228.78
2023-12-30T23:48:14.564Z,100223.47
2023-12-30T23:50:42.724Z,100226.13
2023-12-30T23:53:11.029Z,100223.47
2023-12-30T23:55:39.326Z,100226.41
2023-12-30T23:58:10.170Z,100224.72
